sensor_id;sensor_type;location;lat;lon;timestamp;temperature;humidity
72814;DHT22;60945;48.516;-2.768;2023-11-21T00:00:13;13.30;80.00
72814;DHT22;60945;48.516;-2.768;2023-11-21T00:02:40;13.30;80.20
72814;DHT22;60945;48.516;-2.768;2023-11-21T00:05:09;13.30;79.90
72814;DHT22;60945;48.516;-2.768;2023-11-21T00:07:38;13.30;80.60
72814;DHT22;60945;48.516;-2.768;2023-11-21T00:10:05;13.30;80.90
72814;DHT22;60945;48.516;-2.768;2023-11-21T00:12:32;13.20;81.10
72814;DHT22;60945;48.516;-2.768;2023-11-21T00:14:59;13.20;81.00
72814;DHT22;60945;48.516;-2.768;2023-11-21T00:17:25;13.30;80.40
72814;DHT22;60945;48.516;-2.768;2023-11-21T00:19:50;13.40;80.30
72814;DHT22;60945;48.516;-2.768;2023-11-21T00:22:20;13.40;80.40
72814;DHT22;60945;48.516;-2.768;2023-11-21T00:24:46;13.40;79.80
72814;DHT22;60945;48.516;-2.768;2023-11-21T00:27:12;13.30;80.20
72814;DHT22;60945;48.516;-2.768;2023-11-21T00:29:37;13.30;79.80
72814;DHT22;60945;48.516;-2.768;2023-11-21T00:32:07;13.30;79.50
72814;DHT22;60945;48.516;-2.768;2023-11-21T00:34:33;13.30;79.30
72814;DHT22;60945;48.516;-2.768;2023-11-21T00:37:00;13.30;79.40
72814;DHT22;60945;48.516;-2.768;2023-11-21T00:39:25;13.30;79.10
72814;DHT22;60945;48.516;-2.768;2023-11-21T00:41:52;13.30;78.90
72814;DHT22;60945;48.516;-2.768;2023-11-21T00:44:18;13.30;79.20
72814;DHT22;60945;48.516;-2.768;2023-11-21T00:46:43;13.30;79.50
72814;DHT22;60945;48.516;-2.768;2023-11-21T00:49:09;13.30;79.40
72814;DHT22;60945;48.516;-2.768;2023-11-21T00:51:35;13.30;78.60
72814;DHT22;60945;48.516;-2.768;2023-11-21T00:54:01;13.30;78.70
72814;DHT22;60945;48.516;-2.768;2023-11-21T00:56:27;13.20;78.30
72814;DHT22;60945;48.516;-2.768;2023-11-21T00:58:53;13.30;78.50
72814;DHT22;60945;48.516;-2.768;2023-11-21T01:01:19;13.30;78.10
72814;DHT22;60945;48.516;-2.768;2023-11-21T01:03:48;13.20;77.90
72814;DHT22;60945;48.516;-2.768;2023-11-21T01:06:15;13.20;78.50
72814;DHT22;60945;48.516;-2.768;2023-11-21T01:08:40;13.30;78.40
72814;DHT22;60945;48.516;-2.768;2023-11-21T01:11:06;13.30;77.80
72814;DHT22;60945;48.516;-2.768;2023-11-21T01:13:38;13.20;77.80
72814;DHT22;60945;48.516;-2.768;2023-11-21T01:16:05;13.10;78.00
72814;DHT22;60945;48.516;-2.768;2023-11-21T01:18:32;13.20;78.10
72814;DHT22;60945;48.516;-2.768;2023-11-21T01:20:57;13.20;77.80
72814;DHT22;60945;48.516;-2.768;2023-11-21T01:23:24;13.20;77.70
72814;DHT22;60945;48.516;-2.768;2023-11-21T01:25:50;13.20;77.40
72814;DHT22;60945;48.516;-2.768;2023-11-21T01:28:17;13.20;77.80
72814;DHT22;60945;48.516;-2.768;2023-11-21T01:30:42;13.20;77.20
72814;DHT22;60945;48.516;-2.768;2023-11-21T01:33:10;13.20;77.60
72814;DHT22;60945;48.516;-2.768;2023-11-21T01:35:35;13.20;77.20
72814;DHT22;60945;48.516;-2.768;2023-11-21T01:38:01;13.20;77.10
72814;DHT22;60945;48.516;-2.768;2023-11-21T01:40:27;13.20;77.10
72814;DHT22;60945;48.516;-2.768;2023-11-21T01:42:56;13.20;77.10
72814;DHT22;60945;48.516;-2.768;2023-11-21T01:45:23;13.20;77.40
72814;DHT22;60945;48.516;-2.768;2023-11-21T01:47:50;13.20;77.50
72814;DHT22;60945;48.516;-2.768;2023-11-21T01:50:17;13.20;77.50
72814;DHT22;60945;48.516;-2.768;2023-11-21T01:52:45;13.30;77.20
72814;DHT22;60945;48.516;-2.768;2023-11-21T01:55:11;13.30;77.00
72814;DHT22;60945;48.516;-2.768;2023-11-21T01:57:39;13.20;77.00
72814;DHT22;60945;48.516;-2.768;2023-11-21T02:00:07;13.20;77.80
72814;DHT22;60945;48.516;-2.768;2023-11-21T02:02:46;13.10;77.90
72814;DHT22;60945;48.516;-2.768;2023-11-21T02:05:14;13.00;78.40
72814;DHT22;60945;48.516;-2.768;2023-11-21T02:07:40;13.00;78.40
72814;DHT22;60945;48.516;-2.768;2023-11-21T02:10:08;13.00;78.50
72814;DHT22;60945;48.516;-2.768;2023-11-21T02:12:34;13.00;78.70
72814;DHT22;60945;48.516;-2.768;2023-11-21T02:15:05;13.10;78.30
72814;DHT22;60945;48.516;-2.768;2023-11-21T02:17:35;13.10;78.50
72814;DHT22;60945;48.516;-2.768;2023-11-21T02:20:01;13.00;78.80
72814;DHT22;60945;48.516;-2.768;2023-11-21T02:22:33;13.00;79.70
72814;DHT22;60945;48.516;-2.768;2023-11-21T02:25:03;13.00;80.10
72814;DHT22;60945;48.516;-2.768;2023-11-21T02:27:29;13.00;80.80
72814;DHT22;60945;48.516;-2.768;2023-11-21T02:29:54;12.90;81.40
72814;DHT22;60945;48.516;-2.768;2023-11-21T02:32:20;12.90;81.00
72814;DHT22;60945;48.516;-2.768;2023-11-21T02:34:48;12.90;81.10
72814;DHT22;60945;48.516;-2.768;2023-11-21T02:37:14;13.00;80.60
72814;DHT22;60945;48.516;-2.768;2023-11-21T02:39:39;13.00;80.20
72814;DHT22;60945;48.516;-2.768;2023-11-21T02:42:05;13.00;79.70
72814;DHT22;60945;48.516;-2.768;2023-11-21T02:44:31;12.90;80.20
72814;DHT22;60945;48.516;-2.768;2023-11-21T02:46:56;12.90;80.70
72814;DHT22;60945;48.516;-2.768;2023-11-21T02:49:23;13.00;80.60
72814;DHT22;60945;48.516;-2.768;2023-11-21T02:51:49;13.00;79.80
72814;DHT22;60945;48.516;-2.768;2023-11-21T02:54:14;13.10;80.00
72814;DHT22;60945;48.516;-2.768;2023-11-21T02:56:42;13.20;79.20
72814;DHT22;60945;48.516;-2.768;2023-11-21T02:59:08;13.20;79.00
72814;DHT22;60945;48.516;-2.768;2023-11-21T03:01:34;13.20;78.60
72814;DHT22;60945;48.516;-2.768;2023-11-21T03:03:59;13.20;78.50
72814;DHT22;60945;48.516;-2.768;2023-11-21T03:06:25;13.20;79.00
72814;DHT22;60945;48.516;-2.768;2023-11-21T03:08:51;13.10;79.60
72814;DHT22;60945;48.516;-2.768;2023-11-21T03:11:16;13.10;79.50
72814;DHT22;60945;48.516;-2.768;2023-11-21T03:13:42;13.20;79.20
72814;DHT22;60945;48.516;-2.768;2023-11-21T03:16:11;13.20;78.90
72814;DHT22;60945;48.516;-2.768;2023-11-21T03:18:38;13.20;78.50
72814;DHT22;60945;48.516;-2.768;2023-11-21T03:21:05;13.10;78.00
72814;DHT22;60945;48.516;-2.768;2023-11-21T03:23:31;13.10;78.40
72814;DHT22;60945;48.516;-2.768;2023-11-21T03:25:57;13.10;78.60
72814;DHT22;60945;48.516;-2.768;2023-11-21T03:28:23;13.30;78.00
72814;DHT22;60945;48.516;-2.768;2023-11-21T03:30:49;13.30;77.20
72814;DHT22;60945;48.516;-2.768;2023-11-21T03:33:14;13.20;77.20
72814;DHT22;60945;48.516;-2.768;2023-11-21T03:35:40;13.30;76.80
72814;DHT22;60945;48.516;-2.768;2023-11-21T03:38:07;13.20;77.10
72814;DHT22;60945;48.516;-2.768;2023-11-21T03:40:33;13.10;77.30
72814;DHT22;60945;48.516;-2.768;2023-11-21T03:43:01;13.20;77.20
72814;DHT22;60945;48.516;-2.768;2023-11-21T03:45:27;13.20;76.80
72814;DHT22;60945;48.516;-2.768;2023-11-21T03:47:53;13.30;76.60
72814;DHT22;60945;48.516;-2.768;2023-11-21T03:50:18;13.10;76.70
72814;DHT22;60945;48.516;-2.768;2023-11-21T03:52:44;13.10;76.70
72814;DHT22;60945;48.516;-2.768;2023-11-21T03:55:10;13.30;76.40
72814;DHT22;60945;48.516;-2.768;2023-11-21T03:57:36;13.30;75.90
72814;DHT22;60945;48.516;-2.768;2023-11-21T04:00:02;13.40;75.90
72814;DHT22;60945;48.516;-2.768;2023-11-21T04:02:29;13.30;75.90
72814;DHT22;60945;48.516;-2.768;2023-11-21T04:04:57;13.30;75.90
72814;DHT22;60945;48.516;-2.768;2023-11-21T04:07:22;13.40;75.80
72814;DHT22;60945;48.516;-2.768;2023-11-21T04:09:48;13.40;75.90
72814;DHT22;60945;48.516;-2.768;2023-11-21T04:12:14;13.30;75.50
72814;DHT22;60945;48.516;-2.768;2023-11-21T04:14:39;13.30;75.60
72814;DHT22;60945;48.516;-2.768;2023-11-21T04:17:05;13.20;76.00
72814;DHT22;60945;48.516;-2.768;2023-11-21T04:19:31;13.20;75.80
72814;DHT22;60945;48.516;-2.768;2023-11-21T04:21:56;13.30;75.50
72814;DHT22;60945;48.516;-2.768;2023-11-21T04:24:22;13.20;75.60
72814;DHT22;60945;48.516;-2.768;2023-11-21T04:26:48;13.40;75.40
72814;DHT22;60945;48.516;-2.768;2023-11-21T04:29:13;13.40;75.70
72814;DHT22;60945;48.516;-2.768;2023-11-21T04:31:39;13.30;75.00
72814;DHT22;60945;48.516;-2.768;2023-11-21T04:34:05;13.40;76.20
72814;DHT22;60945;48.516;-2.768;2023-11-21T04:36:30;13.40;75.40
72814;DHT22;60945;48.516;-2.768;2023-11-21T04:38:56;13.50;75.20
72814;DHT22;60945;48.516;-2.768;2023-11-21T04:41:22;13.40;74.90
72814;DHT22;60945;48.516;-2.768;2023-11-21T04:43:48;13.40;75.50
72814;DHT22;60945;48.516;-2.768;2023-11-21T04:46:14;13.40;75.50
72814;DHT22;60945;48.516;-2.768;2023-11-21T04:48:42;13.40;74.90
72814;DHT22;60945;48.516;-2.768;2023-11-21T04:51:08;13.40;75.30
72814;DHT22;60945;48.516;-2.768;2023-11-21T04:53:34;13.30;75.00
72814;DHT22;60945;48.516;-2.768;2023-11-21T04:56:00;13.40;75.40
72814;DHT22;60945;48.516;-2.768;2023-11-21T04:58:26;13.40;75.30
72814;DHT22;60945;48.516;-2.768;2023-11-21T05:00:51;13.50;75.10
72814;DHT22;60945;48.516;-2.768;2023-11-21T05:03:17;13.40;75.80
72814;DHT22;60945;48.516;-2.768;2023-11-21T05:05:43;13.40;76.50
72814;DHT22;60945;48.516;-2.768;2023-11-21T05:08:08;13.50;76.10
72814;DHT22;60945;48.516;-2.768;2023-11-21T05:10:34;13.40;76.00
72814;DHT22;60945;48.516;-2.768;2023-11-21T05:12:59;13.50;76.30
72814;DHT22;60945;48.516;-2.768;2023-11-21T05:15:25;13.30;76.90
72814;DHT22;60945;48.516;-2.768;2023-11-21T05:17:53;13.30;76.80
72814;DHT22;60945;48.516;-2.768;2023-11-21T05:20:19;13.30;76.50
72814;DHT22;60945;48.516;-2.768;2023-11-21T05:22:49;13.20;76.60
72814;DHT22;60945;48.516;-2.768;2023-11-21T05:25:14;13.20;76.40
72814;DHT22;60945;48.516;-2.768;2023-11-21T05:27:41;13.10;76.10
72814;DHT22;60945;48.516;-2.768;2023-11-21T05:30:06;13.20;75.80
72814;DHT22;60945;48.516;-2.768;2023-11-21T05:32:34;13.10;75.90
72814;DHT22;60945;48.516;-2.768;2023-11-21T05:35:00;13.20;76.20
72814;DHT22;60945;48.516;-2.768;2023-11-21T05:37:26;13.20;75.40
72814;DHT22;60945;48.516;-2.768;2023-11-21T05:39:53;13.10;75.70
72814;DHT22;60945;48.516;-2.768;2023-11-21T05:42:18;13.10;75.70
72814;DHT22;60945;48.516;-2.768;2023-11-21T05:44:44;13.10;75.70
72814;DHT22;60945;48.516;-2.768;2023-11-21T05:47:10;13.10;75.70
72814;DHT22;60945;48.516;-2.768;2023-11-21T05:49:36;13.20;75.30
72814;DHT22;60945;48.516;-2.768;2023-11-21T05:52:02;13.30;75.10
72814;DHT22;60945;48.516;-2.768;2023-11-21T05:54:28;13.40;75.20
72814;DHT22;60945;48.516;-2.768;2023-11-21T05:56:54;13.40;75.30
72814;DHT22;60945;48.516;-2.768;2023-11-21T05:59:19;13.40;75.20
72814;DHT22;60945;48.516;-2.768;2023-11-21T06:01:46;13.30;74.90
72814;DHT22;60945;48.516;-2.768;2023-11-21T06:04:12;13.30;75.40
72814;DHT22;60945;48.516;-2.768;2023-11-21T06:06:38;13.40;75.10
72814;DHT22;60945;48.516;-2.768;2023-11-21T06:09:04;13.40;74.90
72814;DHT22;60945;48.516;-2.768;2023-11-21T06:11:31;13.30;74.90
72814;DHT22;60945;48.516;-2.768;2023-11-21T06:13:57;13.20;75.90
72814;DHT22;60945;48.516;-2.768;2023-11-21T06:16:23;13.10;76.40
72814;DHT22;60945;48.516;-2.768;2023-11-21T06:18:49;13.20;76.60
72814;DHT22;60945;48.516;-2.768;2023-11-21T06:21:15;13.40;76.00
72814;DHT22;60945;48.516;-2.768;2023-11-21T06:23:42;13.20;76.20
72814;DHT22;60945;48.516;-2.768;2023-11-21T06:26:08;13.00;77.20
72814;DHT22;60945;48.516;-2.768;2023-11-21T06:28:34;13.00;77.20
72814;DHT22;60945;48.516;-2.768;2023-11-21T06:31:01;13.00;77.30
72814;DHT22;60945;48.516;-2.768;2023-11-21T06:33:33;13.00;77.20
72814;DHT22;60945;48.516;-2.768;2023-11-21T06:35:59;13.00;77.40
72814;DHT22;60945;48.516;-2.768;2023-11-21T06:38:28;13.10;77.40
72814;DHT22;60945;48.516;-2.768;2023-11-21T06:40:55;13.20;77.00
72814;DHT22;60945;48.516;-2.768;2023-11-21T06:43:21;13.20;76.40
72814;DHT22;60945;48.516;-2.768;2023-11-21T06:45:47;13.10;76.80
72814;DHT22;60945;48.516;-2.768;2023-11-21T06:48:13;13.20;76.80
72814;DHT22;60945;48.516;-2.768;2023-11-21T06:50:39;13.20;76.80
72814;DHT22;60945;48.516;-2.768;2023-11-21T06:53:04;13.30;76.70
72814;DHT22;60945;48.516;-2.768;2023-11-21T06:55:32;13.20;76.70
72814;DHT22;60945;48.516;-2.768;2023-11-21T06:57:58;13.20;76.40
72814;DHT22;60945;48.516;-2.768;2023-11-21T07:00:25;13.20;76.30
72814;DHT22;60945;48.516;-2.768;2023-11-21T07:02:53;13.20;76.40
72814;DHT22;60945;48.516;-2.768;2023-11-21T07:05:21;13.20;77.00
72814;DHT22;60945;48.516;-2.768;2023-11-21T07:07:47;13.20;76.70
72814;DHT22;60945;48.516;-2.768;2023-11-21T07:10:13;13.30;76.40
72814;DHT22;60945;48.516;-2.768;2023-11-21T07:12:40;13.40;75.60
72814;DHT22;60945;48.516;-2.768;2023-11-21T07:15:06;13.30;75.80
72814;DHT22;60945;48.516;-2.768;2023-11-21T07:17:35;13.50;75.40
72814;DHT22;60945;48.516;-2.768;2023-11-21T07:20:01;13.40;75.30
72814;DHT22;60945;48.516;-2.768;2023-11-21T07:22:27;13.40;76.40
72814;DHT22;60945;48.516;-2.768;2023-11-21T07:24:53;13.40;76.50
72814;DHT22;60945;48.516;-2.768;2023-11-21T07:27:19;13.30;76.70
72814;DHT22;60945;48.516;-2.768;2023-11-21T07:29:45;13.30;76.60
72814;DHT22;60945;48.516;-2.768;2023-11-21T07:32:10;13.30;76.80
72814;DHT22;60945;48.516;-2.768;2023-11-21T07:34:36;13.30;76.80
72814;DHT22;60945;48.516;-2.768;2023-11-21T07:37:02;13.40;76.70
72814;DHT22;60945;48.516;-2.768;2023-11-21T07:39:28;13.40;76.80
72814;DHT22;60945;48.516;-2.768;2023-11-21T07:41:55;13.30;77.20
72814;DHT22;60945;48.516;-2.768;2023-11-21T07:44:21;13.30;77.40
72814;DHT22;60945;48.516;-2.768;2023-11-21T07:46:47;13.30;77.20
72814;DHT22;60945;48.516;-2.768;2023-11-21T07:49:13;13.40;77.20
72814;DHT22;60945;48.516;-2.768;2023-11-21T07:51:42;13.30;77.00
72814;DHT22;60945;48.516;-2.768;2023-11-21T07:54:07;13.30;77.70
72814;DHT22;60945;48.516;-2.768;2023-11-21T07:56:33;13.40;77.80
72814;DHT22;60945;48.516;-2.768;2023-11-21T07:58:58;13.30;77.30
72814;DHT22;60945;48.516;-2.768;2023-11-21T08:01:24;13.10;78.50
72814;DHT22;60945;48.516;-2.768;2023-11-21T08:03:50;13.00;79.20
72814;DHT22;60945;48.516;-2.768;2023-11-21T08:06:18;12.80;79.30
72814;DHT22;60945;48.516;-2.768;2023-11-21T08:08:43;12.80;79.90
72814;DHT22;60945;48.516;-2.768;2023-11-21T08:11:09;12.90;80.00
72814;DHT22;60945;48.516;-2.768;2023-11-21T08:13:36;12.90;80.10
72814;DHT22;60945;48.516;-2.768;2023-11-21T08:16:02;12.90;80.20
72814;DHT22;60945;48.516;-2.768;2023-11-21T08:18:28;13.00;80.00
72814;DHT22;60945;48.516;-2.768;2023-11-21T08:20:57;13.00;79.90
72814;DHT22;60945;48.516;-2.768;2023-11-21T08:23:22;13.10;79.50
72814;DHT22;60945;48.516;-2.768;2023-11-21T08:25:54;13.10;79.00
72814;DHT22;60945;48.516;-2.768;2023-11-21T08:28:21;13.00;79.50
72814;DHT22;60945;48.516;-2.768;2023-11-21T08:30:51;12.90;78.70
72814;DHT22;60945;48.516;-2.768;2023-11-21T08:33:17;12.80;79.50
72814;DHT22;60945;48.516;-2.768;2023-11-21T08:35:43;12.90;79.30
72814;DHT22;60945;48.516;-2.768;2023-11-21T08:38:09;13.00;79.40
72814;DHT22;60945;48.516;-2.768;2023-11-21T08:40:36;13.10;80.20
72814;DHT22;60945;48.516;-2.768;2023-11-21T08:43:01;13.00;80.80
72814;DHT22;60945;48.516;-2.768;2023-11-21T08:45:30;12.90;81.90
72814;DHT22;60945;48.516;-2.768;2023-11-21T08:47:55;12.70;82.40
72814;DHT22;60945;48.516;-2.768;2023-11-21T08:50:21;12.70;82.40
72814;DHT22;60945;48.516;-2.768;2023-11-21T08:52:47;12.80;82.90
72814;DHT22;60945;48.516;-2.768;2023-11-21T08:55:13;12.80;82.70
72814;DHT22;60945;48.516;-2.768;2023-11-21T08:57:39;12.70;83.50
72814;DHT22;60945;48.516;-2.768;2023-11-21T09:00:08;12.60;84.20
72814;DHT22;60945;48.516;-2.768;2023-11-21T09:02:38;12.60;84.20
72814;DHT22;60945;48.516;-2.768;2023-11-21T09:05:10;12.60;84.10
72814;DHT22;60945;48.516;-2.768;2023-11-21T09:07:36;12.70;84.10
72814;DHT22;60945;48.516;-2.768;2023-11-21T09:10:05;12.90;83.70
72814;DHT22;60945;48.516;-2.768;2023-11-21T09:12:33;13.10;83.10
72814;DHT22;60945;48.516;-2.768;2023-11-21T09:15:02;13.10;83.20
72814;DHT22;60945;48.516;-2.768;2023-11-21T09:17:27;12.90;84.60
72814;DHT22;60945;48.516;-2.768;2023-11-21T09:19:53;12.60;86.20
72814;DHT22;60945;48.516;-2.768;2023-11-21T09:22:19;12.40;87.50
72814;DHT22;60945;48.516;-2.768;2023-11-21T09:24:45;12.40;87.90
72814;DHT22;60945;48.516;-2.768;2023-11-21T09:27:10;12.40;88.20
72814;DHT22;60945;48.516;-2.768;2023-11-21T09:29:36;12.40;89.10
72814;DHT22;60945;48.516;-2.768;2023-11-21T09:32:08;12.50;89.20
72814;DHT22;60945;48.516;-2.768;2023-11-21T09:34:38;12.50;88.70
72814;DHT22;60945;48.516;-2.768;2023-11-21T09:37:04;12.70;88.30
72814;DHT22;60945;48.516;-2.768;2023-11-21T09:39:32;12.70;88.10
72814;DHT22;60945;48.516;-2.768;2023-11-21T09:42:08;12.60;87.90
72814;DHT22;60945;48.516;-2.768;2023-11-21T09:47:07;12.30;88.60
72814;DHT22;60945;48.516;-2.768;2023-11-21T09:49:37;12.10;89.00
72814;DHT22;60945;48.516;-2.768;2023-11-21T09:52:04;11.90;88.90
72814;DHT22;60945;48.516;-2.768;2023-11-21T09:54:32;12.00;88.70
72814;DHT22;60945;48.516;-2.768;2023-11-21T09:56:59;12.10;88.40
72814;DHT22;60945;48.516;-2.768;2023-11-21T09:59:29;12.40;87.70
72814;DHT22;60945;48.516;-2.768;2023-11-21T10:01:56;12.50;87.50
72814;DHT22;60945;48.516;-2.768;2023-11-21T10:04:24;12.60;87.40
72814;DHT22;60945;48.516;-2.768;2023-11-21T10:06:50;12.60;87.00
72814;DHT22;60945;48.516;-2.768;2023-11-21T10:09:17;12.40;86.20
72814;DHT22;60945;48.516;-2.768;2023-11-21T10:11:47;12.20;87.70
72814;DHT22;60945;48.516;-2.768;2023-11-21T10:14:16;12.30;88.50
72814;DHT22;60945;48.516;-2.768;2023-11-21T10:16:44;12.30;89.80
72814;DHT22;60945;48.516;-2.768;2023-11-21T10:19:13;12.20;95.30
72814;DHT22;60945;48.516;-2.768;2023-11-21T10:21:42;12.30;92.30
72814;DHT22;60945;48.516;-2.768;2023-11-21T10:24:08;12.40;89.40
72814;DHT22;60945;48.516;-2.768;2023-11-21T10:26:34;12.50;86.80
72814;DHT22;60945;48.516;-2.768;2023-11-21T10:29:02;12.70;84.70
72814;DHT22;60945;48.516;-2.768;2023-11-21T10:31:31;12.80;82.90
72814;DHT22;60945;48.516;-2.768;2023-11-21T10:34:15;12.90;82.10
72814;DHT22;60945;48.516;-2.768;2023-11-21T10:36:41;13.30;81.40
72814;DHT22;60945;48.516;-2.768;2023-11-21T10:39:07;13.40;81.40
72814;DHT22;60945;48.516;-2.768;2023-11-21T10:41:33;13.30;81.50
72814;DHT22;60945;48.516;-2.768;2023-11-21T10:43:59;13.30;81.70
72814;DHT22;60945;48.516;-2.768;2023-11-21T10:46:25;13.30;80.80
72814;DHT22;60945;48.516;-2.768;2023-11-21T10:48:53;13.30;80.90
72814;DHT22;60945;48.516;-2.768;2023-11-21T10:51:21;13.30;81.50
72814;DHT22;60945;48.516;-2.768;2023-11-21T10:53:47;13.30;81.20
72814;DHT22;60945;48.516;-2.768;2023-11-21T10:56:14;12.90;81.80
72814;DHT22;60945;48.516;-2.768;2023-11-21T10:58:48;12.70;83.50
72814;DHT22;60945;48.516;-2.768;2023-11-21T11:01:18;12.70;84.50
72814;DHT22;60945;48.516;-2.768;2023-11-21T11:03:44;12.90;84.60
72814;DHT22;60945;48.516;-2.768;2023-11-21T11:06:10;13.10;83.30
72814;DHT22;60945;48.516;-2.768;2023-11-21T11:08:39;13.10;82.70
72814;DHT22;60945;48.516;-2.768;2023-11-21T11:11:09;13.20;82.70
72814;DHT22;60945;48.516;-2.768;2023-11-21T11:13:35;13.10;82.70
72814;DHT22;60945;48.516;-2.768;2023-11-21T11:16:03;13.00;82.90
72814;DHT22;60945;48.516;-2.768;2023-11-21T11:18:33;13.00;82.90
72814;DHT22;60945;48.516;-2.768;2023-11-21T11:21:14;13.10;82.30
72814;DHT22;60945;48.516;-2.768;2023-11-21T11:26:30;13.10;82.70
72814;DHT22;60945;48.516;-2.768;2023-11-21T11:29:08;12.90;82.60
72814;DHT22;60945;48.516;-2.768;2023-11-21T11:34:30;12.90;83.70
72814;DHT22;60945;48.516;-2.768;2023-11-21T11:37:02;12.80;84.50
72814;DHT22;60945;48.516;-2.768;2023-11-21T11:39:36;12.90;84.50
72814;DHT22;60945;48.516;-2.768;2023-11-21T11:42:06;12.90;83.20
72814;DHT22;60945;48.516;-2.768;2023-11-21T11:50:08;13.30;80.30
72814;DHT22;60945;48.516;-2.768;2023-11-21T11:52:44;13.10;79.90
72814;DHT22;60945;48.516;-2.768;2023-11-21T11:55:16;13.10;80.50
72814;DHT22;60945;48.516;-2.768;2023-11-21T11:57:45;12.90;80.60
72814;DHT22;60945;48.516;-2.768;2023-11-21T12:00:13;12.90;80.10
72814;DHT22;60945;48.516;-2.768;2023-11-21T12:02:54;13.00;78.80
72814;DHT22;60945;48.516;-2.768;2023-11-21T12:05:22;13.10;77.50
72814;DHT22;60945;48.516;-2.768;2023-11-21T12:07:55;13.20;76.50
72814;DHT22;60945;48.516;-2.768;2023-11-21T12:12:54;13.20;76.40
72814;DHT22;60945;48.516;-2.768;2023-11-21T12:15:20;13.30;77.20
72814;DHT22;60945;48.516;-2.768;2023-11-21T12:17:47;13.60;75.40
72814;DHT22;60945;48.516;-2.768;2023-11-21T12:20:15;13.50;75.70
72814;DHT22;60945;48.516;-2.768;2023-11-21T12:27:46;13.30;75.30
72814;DHT22;60945;48.516;-2.768;2023-11-21T12:30:15;13.40;75.00
72814;DHT22;60945;48.516;-2.768;2023-11-21T12:32:48;13.40;74.50
72814;DHT22;60945;48.516;-2.768;2023-11-21T12:35:14;13.40;74.80
72814;DHT22;60945;48.516;-2.768;2023-11-21T12:37:41;13.20;75.20
72814;DHT22;60945;48.516;-2.768;2023-11-21T12:40:10;13.20;75.60
72814;DHT22;60945;48.516;-2.768;2023-11-21T12:42:44;13.10;75.70
72814;DHT22;60945;48.516;-2.768;2023-11-21T12:47:43;13.20;75.00
72814;DHT22;60945;48.516;-2.768;2023-11-21T12:50:10;13.20;74.90
72814;DHT22;60945;48.516;-2.768;2023-11-21T12:52:45;13.30;75.10
72814;DHT22;60945;48.516;-2.768;2023-11-21T12:55:21;13.30;74.50
72814;DHT22;60945;48.516;-2.768;2023-11-21T12:57:54;13.10;74.50
72814;DHT22;60945;48.516;-2.768;2023-11-21T13:00:34;13.20;74.70
72814;DHT22;60945;48.516;-2.768;2023-11-21T13:03:03;13.20;74.60
72814;DHT22;60945;48.516;-2.768;2023-11-21T13:05:32;12.80;75.40
72814;DHT22;60945;48.516;-2.768;2023-11-21T13:08:01;12.90;75.40
72814;DHT22;60945;48.516;-2.768;2023-11-21T13:10:31;12.80;75.10
72814;DHT22;60945;48.516;-2.768;2023-11-21T13:13:01;12.80;74.40
72814;DHT22;60945;48.516;-2.768;2023-11-21T13:15:30;12.70;75.10
72814;DHT22;60945;48.516;-2.768;2023-11-21T13:17:57;12.70;74.60
72814;DHT22;60945;48.516;-2.768;2023-11-21T13:20:24;12.90;74.00
72814;DHT22;60945;48.516;-2.768;2023-11-21T13:22:50;12.70;73.90
72814;DHT22;60945;48.516;-2.768;2023-11-21T13:25:23;12.80;74.10
72814;DHT22;60945;48.516;-2.768;2023-11-21T13:27:49;12.80;74.40
72814;DHT22;60945;48.516;-2.768;2023-11-21T13:30:16;12.80;74.50
72814;DHT22;60945;48.516;-2.768;2023-11-21T13:32:45;12.80;73.90
72814;DHT22;60945;48.516;-2.768;2023-11-21T13:35:17;12.90;73.70
72814;DHT22;60945;48.516;-2.768;2023-11-21T13:37:50;12.80;73.50
72814;DHT22;60945;48.516;-2.768;2023-11-21T13:40:20;12.70;73.40
72814;DHT22;60945;48.516;-2.768;2023-11-21T13:42:49;12.70;74.40
72814;DHT22;60945;48.516;-2.768;2023-11-21T13:45:15;12.70;73.70
72814;DHT22;60945;48.516;-2.768;2023-11-21T13:47:42;12.70;73.60
72814;DHT22;60945;48.516;-2.768;2023-11-21T13:50:08;12.40;75.00
72814;DHT22;60945;48.516;-2.768;2023-11-21T13:52:43;12.50;75.00
72814;DHT22;60945;48.516;-2.768;2023-11-21T13:55:10;12.30;75.80
72814;DHT22;60945;48.516;-2.768;2023-11-21T13:57:44;12.30;75.60
72814;DHT22;60945;48.516;-2.768;2023-11-21T14:00:12;12.30;75.90
72814;DHT22;60945;48.516;-2.768;2023-11-21T14:02:58;12.30;75.20
72814;DHT22;60945;48.516;-2.768;2023-11-21T14:05:30;12.30;75.10
72814;DHT22;60945;48.516;-2.768;2023-11-21T14:07:57;12.30;74.80
72814;DHT22;60945;48.516;-2.768;2023-11-21T14:10:30;12.30;75.10
72814;DHT22;60945;48.516;-2.768;2023-11-21T14:13:09;12.30;74.80
72814;DHT22;60945;48.516;-2.768;2023-11-21T14:15:41;12.30;74.20
72814;DHT22;60945;48.516;-2.768;2023-11-21T14:18:11;12.40;73.80
72814;DHT22;60945;48.516;-2.768;2023-11-21T14:20:40;12.40;73.80
72814;DHT22;60945;48.516;-2.768;2023-11-21T14:23:06;12.60;72.90
72814;DHT22;60945;48.516;-2.768;2023-11-21T14:25:35;12.40;73.00
72814;DHT22;60945;48.516;-2.768;2023-11-21T14:28:05;12.30;73.50
72814;DHT22;60945;48.516;-2.768;2023-11-21T14:30:34;12.20;73.60
72814;DHT22;60945;48.516;-2.768;2023-11-21T14:33:02;12.40;73.20
72814;DHT22;60945;48.516;-2.768;2023-11-21T14:35:28;12.30;73.20
72814;DHT22;60945;48.516;-2.768;2023-11-21T14:37:58;12.20;73.20
72814;DHT22;60945;48.516;-2.768;2023-11-21T14:40:24;12.10;73.40
72814;DHT22;60945;48.516;-2.768;2023-11-21T14:42:51;12.20;73.50
72814;DHT22;60945;48.516;-2.768;2023-11-21T14:45:19;12.30;72.70
72814;DHT22;60945;48.516;-2.768;2023-11-21T14:47:46;12.30;72.50
72814;DHT22;60945;48.516;-2.768;2023-11-21T14:50:22;12.30;72.50
72814;DHT22;60945;48.516;-2.768;2023-11-21T14:53:06;12.30;72.90
72814;DHT22;60945;48.516;-2.768;2023-11-21T14:55:33;12.10;72.10
72814;DHT22;60945;48.516;-2.768;2023-11-21T14:58:07;12.20;72.40
72814;DHT22;60945;48.516;-2.768;2023-11-21T15:00:38;12.10;72.40
72814;DHT22;60945;48.516;-2.768;2023-11-21T15:03:11;12.20;72.50
72814;DHT22;60945;48.516;-2.768;2023-11-21T15:06:05;12.10;72.30
72814;DHT22;60945;48.516;-2.768;2023-11-21T15:08:51;11.90;72.50
72814;DHT22;60945;48.516;-2.768;2023-11-21T15:11:42;12.00;72.30
72814;DHT22;60945;48.516;-2.768;2023-11-21T15:14:08;12.20;71.50
72814;DHT22;60945;48.516;-2.768;2023-11-21T15:16:36;12.20;71.50
72814;DHT22;60945;48.516;-2.768;2023-11-21T15:19:11;12.20;71.60
72814;DHT22;60945;48.516;-2.768;2023-11-21T15:21:43;12.10;71.90
72814;DHT22;60945;48.516;-2.768;2023-11-21T15:24:11;12.10;72.40
72814;DHT22;60945;48.516;-2.768;2023-11-21T15:26:37;12.20;72.60
72814;DHT22;60945;48.516;-2.768;2023-11-21T15:29:02;12.10;72.60
72814;DHT22;60945;48.516;-2.768;2023-11-21T15:31:29;12.10;73.00
72814;DHT22;60945;48.516;-2.768;2023-11-21T15:33:54;12.10;73.10
72814;DHT22;60945;48.516;-2.768;2023-11-21T15:36:25;12.10;72.70
72814;DHT22;60945;48.516;-2.768;2023-11-21T15:38:52;12.10;72.70
72814;DHT22;60945;48.516;-2.768;2023-11-21T15:41:18;12.10;72.10